sensor_id;sensor_type;location;lat;lon;timestamp;pressure;altitude;pressure_sealevel;temperature;humidity
62031;BME280;62035;52.094;5.112;2023-01-13T00:00:23;100387.66;;;9.74;100.00
62031;BME280;62035;52.094;5.112;2023-01-13T00:02:52;100384.53;;;9.78;100.00
62031;BME280;62035;52.094;5.112;2023-01-13T00:05:20;100371.47;;;9.85;100.00
62031;BME280;62035;52.094;5.112;2023-01-13T00:07:47;100377.44;;;9.87;100.00
62031;BME280;62035;52.094;5.112;2023-01-13T00:10:15;100377.69;;;9.76;100.00
62031;BME280;62035;52.094;5.112;2023-01-13T00:12:44;100374.13;;;9.67;100.00
62031;BME280;62035;52.094;5.112;2023-01-13T00:15:11;100370.63;;;9.58;100.00
62031;BME280;62035;52.094;5.112;2023-01-13T00:17:39;100372.47;;;9.66;100.00
62031;BME280;62035;52.094;5.112;2023-01-13T00:20:09;100377.75;;;9.58;100.00
62031;BME280;62035;52.094;5.112;2023-01-13T00:22:37;100391.19;;;9.56;100.00
62031;BME280;62035;52.094;5.112;2023-01-13T00:25:05;100393.56;;;9.67;100.00
62031;BME280;62035;52.094;5.112;2023-01-13T00:27:34;100390.81;;;9.77;100.00
62031;BME280;62035;52.094;5.112;2023-01-13T00:30:02;100402.34;;;9.86;100.00
62031;BME280;62035;52.094;5.112;2023-01-13T00:32:30;100396.97;;;10.03;100.00
62031;BME280;62035;52.094;5.112;2023-01-13T00:34:58;100395.47;;;10.01;100.00
62031;BME280;62035;52.094;5.112;2023-01-13T00:37:27;100397.66;;;9.80;100.00
62031;BME280;62035;52.094;5.112;2023-01-13T00:39:54;100400.72;;;9.67;100.00
62031;BME280;62035;52.094;5.112;2023-01-13T00:42:22;100387.50;;;9.75;100.00
62031;BME280;62035;52.094;5.112;2023-01-13T00:45:08;100391.56;;;9.87;100.00
62031;BME280;62035;52.094;5.112;2023-01-13T00:47:36;100393.78;;;9.92;100.00
62031;BME280;62035;52.094;5.112;2023-01-13T00:50:04;100381.34;;;10.00;100.00
62031;BME280;62035;52.094;5.112;2023-01-13T00:52:33;100373.56;;;9.99;100.00
62031;BME280;62035;52.094;5.112;2023-01-13T00:55:01;100380.59;;;10.16;100.00
62031;BME280;62035;52.094;5.112;2023-01-13T00:57:28;100379.72;;;10.08;100.00
62031;BME280;62035;52.094;5.112;2023-01-13T00:59:56;100372.53;;;10.00;100.00
62031;BME280;62035;52.094;5.112;2023-01-13T01:02:24;100378.50;;;10.20;100.00
62031;BME280;62035;52.094;5.112;2023-01-13T01:04:51;100382.00;;;9.94;100.00
62031;BME280;62035;52.094;5.112;2023-01-13T01:07:19;100368.88;;;10.01;100.00
62031;BME280;62035;52.094;5.112;2023-01-13T01:09:48;100371.06;;;10.06;100.00
62031;BME280;62035;52.094;5.112;2023-01-13T01:12:16;100351.34;;;9.82;100.00
62031;BME280;62035;52.094;5.112;2023-01-13T01:14:43;100353.47;;;9.79;100.00
62031;BME280;62035;52.094;5.112;2023-01-13T01:17:11;100350.28;;;9.75;100.00
62031;BME280;62035;52.094;5.112;2023-01-13T01:19:39;100337.00;;;9.75;100.00
62031;BME280;62035;52.094;5.112;2023-01-13T01:22:07;100340.66;;;9.74;100.00
62031;BME280;62035;52.094;5.112;2023-01-13T01:24:34;100346.38;;;9.61;100.00
62031;BME280;62035;52.094;5.112;2023-01-13T01:27:03;100349.84;;;9.62;100.00
62031;BME280;62035;52.094;5.112;2023-01-13T01:29:31;100360.69;;;9.68;100.00
62031;BME280;62035;52.094;5.112;2023-01-13T01:31:59;100361.84;;;9.66;100.00
62031;BME280;62035;52.094;5.112;2023-01-13T01:34:26;100368.81;;;9.67;100.00
62031;BME280;62035;52.094;5.112;2023-01-13T01:36:54;100357.06;;;9.69;100.00
62031;BME280;62035;52.094;5.112;2023-01-13T01:39:21;100365.56;;;9.73;100.00
62031;BME280;62035;52.094;5.112;2023-01-13T01:41:49;100366.53;;;9.72;100.00
62031;BME280;62035;52.094;5.112;2023-01-13T01:44:54;100373.53;;;9.73;100.00
62031;BME280;62035;52.094;5.112;2023-01-13T01:47:27;100362.78;;;9.57;100.00
62031;BME280;62035;52.094;5.112;2023-01-13T01:49:57;100374.56;;;9.80;100.00
62031;BME280;62035;52.094;5.112;2023-01-13T01:52:28;100371.69;;;9.74;100.00
62031;BME280;62035;52.094;5.112;2023-01-13T01:55:04;100379.03;;;9.54;100.00
62031;BME280;62035;52.094;5.112;2023-01-13T01:57:38;100363.28;;;9.60;100.00
62031;BME280;62035;52.094;5.112;2023-01-13T02:00:12;100370.41;;;9.52;100.00
62031;BME280;62035;52.094;5.112;2023-01-13T02:02:43;100357.38;;;9.66;100.00
62031;BME280;62035;52.094;5.112;2023-01-13T02:05:12;100343.81;;;9.52;100.00
62031;BME280;62035;52.094;5.112;2023-01-13T02:07:42;100350.97;;;9.33;100.00
62031;BME280;62035;52.094;5.112;2023-01-13T02:10:14;100338.50;;;9.52;100.00
62031;BME280;62035;52.094;5.112;2023-01-13T02:12:45;100345.19;;;9.38;100.00
62031;BME280;62035;52.094;5.112;2023-01-13T02:15:17;100336.25;;;9.39;100.00
62031;BME280;62035;52.094;5.112;2023-01-13T02:18:05;100339.56;;;9.59;100.00
62031;BME280;62035;52.094;5.112;2023-01-13T02:21:06;100339.13;;;9.46;100.00
62031;BME280;62035;52.094;5.112;2023-01-13T02:23:58;100304.84;;;9.34;100.00
62031;BME280;62035;52.094;5.112;2023-01-13T02:27:24;100308.03;;;9.38;100.00
62031;BME280;62035;52.094;5.112;2023-01-13T02:30:08;100316.06;;;9.46;100.00
62031;BME280;62035;52.094;5.112;2023-01-13T02:33:25;100293.81;;;9.47;100.00
62031;BME280;62035;52.094;5.112;2023-01-13T02:36:10;100300.19;;;9.54;100.00
62031;BME280;62035;52.094;5.112;2023-01-13T02:38:49;100285.59;;;9.58;100.00
62031;BME280;62035;52.094;5.112;2023-01-13T02:41:26;100300.69;;;9.84;100.00
62031;BME280;62035;52.094;5.112;2023-01-13T02:44:21;100297.38;;;9.56;100.00
62031;BME280;62035;52.094;5.112;2023-01-13T02:46:59;100275.75;;;9.51;100.00
62031;BME280;62035;52.094;5.112;2023-01-13T02:49:34;100303.75;;;9.71;100.00
62031;BME280;62035;52.094;5.112;2023-01-13T02:52:09;100291.75;;;9.59;100.00
62031;BME280;62035;52.094;5.112;2023-01-13T02:54:43;100307.72;;;9.67;100.00
62031;BME280;62035;52.094;5.112;2023-01-13T02:57:16;100304.84;;;9.86;100.00
62031;BME280;62035;52.094;5.112;2023-01-13T02:59:47;100311.56;;;9.73;100.00
62031;BME280;62035;52.094;5.112;2023-01-13T03:02:18;100294.34;;;9.77;100.00
62031;BME280;62035;52.094;5.112;2023-01-13T03:04:51;100290.09;;;9.58;100.00
62031;BME280;62035;52.094;5.112;2023-01-13T03:07:42;100299.22;;;9.63;100.00
62031;BME280;62035;52.094;5.112;2023-01-13T03:10:32;100290.94;;;9.41;100.00
62031;BME280;62035;52.094;5.112;2023-01-13T03:13:24;100283.50;;;9.44;100.00
62031;BME280;62035;52.094;5.112;2023-01-13T03:16:03;100292.47;;;9.43;100.00
62031;BME280;62035;52.094;5.112;2023-01-13T03:18:47;100289.44;;;9.38;100.00
62031;BME280;62035;52.094;5.112;2023-01-13T03:21:24;100286.16;;;9.44;100.00
62031;BME280;62035;52.094;5.112;2023-01-13T03:24:04;100282.16;;;9.40;100.00
62031;BME280;62035;52.094;5.112;2023-01-13T03:26:38;100292.84;;;9.48;100.00
62031;BME280;62035;52.094;5.112;2023-01-13T03:29:14;100280.03;;;9.44;100.00
62031;BME280;62035;52.094;5.112;2023-01-13T03:31:53;100299.34;;;9.54;100.00
62031;BME280;62035;52.094;5.112;2023-01-13T03:34:30;100304.59;;;9.72;100.00
62031;BME280;62035;52.094;5.112;2023-01-13T03:37:04;100299.03;;;9.83;100.00
62031;BME280;62035;52.094;5.112;2023-01-13T03:39:38;100290.38;;;9.81;100.00
62031;BME280;62035;52.094;5.112;2023-01-13T03:42:15;100295.47;;;9.74;100.00
62031;BME280;62035;52.094;5.112;2023-01-13T03:44:51;100283.41;;;9.80;100.00
62031;BME280;62035;52.094;5.112;2023-01-13T03:47:25;100284.94;;;9.90;100.00
62031;BME280;62035;52.094;5.112;2023-01-13T03:50:03;100280.50;;;9.99;100.00
62031;BME280;62035;52.094;5.112;2023-01-13T03:52:37;100261.41;;;9.69;100.00
62031;BME280;62035;52.094;5.112;2023-01-13T03:55:11;100293.44;;;9.68;100.00
62031;BME280;62035;52.094;5.112;2023-01-13T03:57:45;100283.50;;;9.44;100.00
62031;BME280;62035;52.094;5.112;2023-01-13T04:00:21;100295.59;;;9.64;100.00
62031;BME280;62035;52.094;5.112;2023-01-13T04:02:54;100294.34;;;9.51;100.00
62031;BME280;62035;52.094;5.112;2023-01-13T04:05:32;100288.19;;;9.50;100.00
62031;BME280;62035;52.094;5.112;2023-01-13T04:08:11;100286.78;;;9.38;100.00
62031;BME280;62035;52.094;5.112;2023-01-13T04:10:51;100308.09;;;9.28;100.00
62031;BME280;62035;52.094;5.112;2023-01-13T04:13:24;100301.09;;;9.19;100.00
62031;BME280;62035;52.094;5.112;2023-01-13T04:15:58;100306.81;;;9.32;100.00
62031;BME280;62035;52.094;5.112;2023-01-13T04:18:28;100291.63;;;9.43;100.00
62031;BME280;62035;52.094;5.112;2023-01-13T04:20:59;100295.66;;;9.29;100.00
62031;BME280;62035;52.094;5.112;2023-01-13T04:23:27;100303.31;;;9.32;100.00
62031;BME280;62035;52.094;5.112;2023-01-13T04:25:55;100301.75;;;9.21;100.00
62031;BME280;62035;52.094;5.112;2023-01-13T04:28:23;100292.69;;;9.06;100.00
62031;BME280;62035;52.094;5.112;2023-01-13T04:30:51;100303.06;;;9.17;100.00
62031;BME280;62035;52.094;5.112;2023-01-13T04:33:19;100297.16;;;9.06;100.00
62031;BME280;62035;52.094;5.112;2023-01-13T04:35:47;100285.03;;;9.03;100.00
62031;BME280;62035;52.094;5.112;2023-01-13T04:38:18;100259.38;;;8.94;100.00
62031;BME280;62035;52.094;5.112;2023-01-13T04:40:46;100289.72;;;8.91;100.00
62031;BME280;62035;52.094;5.112;2023-01-13T04:43:14;100276.97;;;8.95;100.00
62031;BME280;62035;52.094;5.112;2023-01-13T04:45:42;100271.75;;;8.85;100.00
62031;BME280;62035;52.094;5.112;2023-01-13T04:48:11;100302.75;;;8.85;100.00
62031;BME280;62035;52.094;5.112;2023-01-13T04:50:39;100299.13;;;9.03;100.00
62031;BME280;62035;52.094;5.112;2023-01-13T04:53:07;100289.78;;;9.17;100.00
62031;BME280;62035;52.094;5.112;2023-01-13T04:55:36;100289.63;;;9.19;100.00
62031;BME280;62035;52.094;5.112;2023-01-13T04:58:05;100294.16;;;9.26;100.00
62031;BME280;62035;52.094;5.112;2023-01-13T05:00:34;100290.09;;;9.14;100.00
62031;BME280;62035;52.094;5.112;2023-01-13T05:03:03;100303.22;;;8.98;100.00
62031;BME280;62035;52.094;5.112;2023-01-13T05:05:31;100305.91;;;9.24;100.00
62031;BME280;62035;52.094;5.112;2023-01-13T05:07:59;100294.03;;;9.10;100.00
62031;BME280;62035;52.094;5.112;2023-01-13T05:10:26;100300.25;;;9.01;100.00
62031;BME280;62035;52.094;5.112;2023-01-13T05:12:55;100294.94;;;9.19;100.00
62031;BME280;62035;52.094;5.112;2023-01-13T05:15:41;100294.38;;;9.33;100.00
62031;BME280;62035;52.094;5.112;2023-01-13T05:18:27;100286.72;;;9.30;100.00
62031;BME280;62035;52.094;5.112;2023-01-13T05:20:56;100300.22;;;9.36;100.00
62031;BME280;62035;52.094;5.112;2023-01-13T05:23:24;100318.06;;;9.26;100.00
62031;BME280;62035;52.094;5.112;2023-01-13T05:26:24;100313.41;;;9.28;100.00
62031;BME280;62035;52.094;5.112;2023-01-13T05:28:52;100311.13;;;9.33;100.00
62031;BME280;62035;52.094;5.112;2023-01-13T05:31:20;100313.84;;;9.16;100.00
62031;BME280;62035;52.094;5.112;2023-01-13T05:33:48;100323.00;;;9.03;100.00
62031;BME280;62035;52.094;5.112;2023-01-13T05:36:15;100320.59;;;9.10;100.00
62031;BME280;62035;52.094;5.112;2023-01-13T05:38:43;100319.00;;;9.17;100.00
62031;BME280;62035;52.094;5.112;2023-01-13T05:41:11;100319.06;;;9.08;100.00
62031;BME280;62035;52.094;5.112;2023-01-13T05:43:57;100319.72;;;9.27;100.00
62031;BME280;62035;52.094;5.112;2023-01-13T05:46:25;100318.34;;;9.23;100.00
62031;BME280;62035;52.094;5.112;2023-01-13T05:48:52;100313.03;;;9.23;100.00
62031;BME280;62035;52.094;5.112;2023-01-13T05:51:20;100314.19;;;9.21;100.00
62031;BME280;62035;52.094;5.112;2023-01-13T05:53:51;100314.88;;;9.23;100.00
62031;BME280;62035;52.094;5.112;2023-01-13T05:56:18;100307.53;;;9.17;100.00
62031;BME280;62035;52.094;5.112;2023-01-13T05:58:46;100307.91;;;9.04;100.00
62031;BME280;62035;52.094;5.112;2023-01-13T06:01:15;100304.28;;;9.05;100.00
62031;BME280;62035;52.094;5.112;2023-01-13T06:03:43;100308.16;;;9.11;100.00
62031;BME280;62035;52.094;5.112;2023-01-13T06:06:10;100310.88;;;9.01;100.00
62031;BME280;62035;52.094;5.112;2023-01-13T06:08:38;100306.19;;;9.13;100.00
62031;BME280;62035;52.094;5.112;2023-01-13T06:11:05;100317.91;;;9.28;100.00
62031;BME280;62035;52.094;5.112;2023-01-13T06:13:33;100315.97;;;9.12;100.00
62031;BME280;62035;52.094;5.112;2023-01-13T06:16:01;100314.91;;;9.05;100.00
62031;BME280;62035;52.094;5.112;2023-01-13T06:18:30;100315.25;;;9.28;100.00
62031;BME280;62035;52.094;5.112;2023-01-13T06:20:57;100311.81;;;9.35;100.00
62031;BME280;62035;52.094;5.112;2023-01-13T06:23:25;100313.81;;;9.33;100.00
62031;BME280;62035;52.094;5.112;2023-01-13T06:25:59;100308.19;;;9.36;100.00
62031;BME280;62035;52.094;5.112;2023-01-13T06:28:32;100309.75;;;9.47;100.00
62031;BME280;62035;52.094;5.112;2023-01-13T06:31:02;100323.78;;;9.57;100.00
62031;BME280;62035;52.094;5.112;2023-01-13T06:33:36;100310.81;;;9.54;100.00
62031;BME280;62035;52.094;5.112;2023-01-13T06:36:11;100319.78;;;9.53;100.00
62031;BME280;62035;52.094;5.112;2023-01-13T06:38:45;100306.53;;;9.61;100.00
62031;BME280;62035;52.094;5.112;2023-01-13T06:41:16;100315.28;;;9.54;100.00
62031;BME280;62035;52.094;5.112;2023-01-13T06:44:05;100327.94;;;9.60;100.00
62031;BME280;62035;52.094;5.112;2023-01-13T06:46:32;100321.44;;;9.54;100.00
62031;BME280;62035;52.094;5.112;2023-01-13T06:49:02;100330.66;;;9.68;100.00
62031;BME280;62035;52.094;5.112;2023-01-13T06:51:29;100324.66;;;9.66;100.00
62031;BME280;62035;52.094;5.112;2023-01-13T06:53:57;100327.38;;;9.74;100.00
62031;BME280;62035;52.094;5.112;2023-01-13T06:56:24;100324.56;;;9.76;100.00
62031;BME280;62035;52.094;5.112;2023-01-13T06:58:52;100325.22;;;9.78;100.00
62031;BME280;62035;52.094;5.112;2023-01-13T07:01:19;100332.63;;;9.66;100.00
62031;BME280;62035;52.094;5.112;2023-01-13T07:03:47;100324.34;;;9.69;100.00
62031;BME280;62035;52.094;5.112;2023-01-13T07:06:16;100337.53;;;9.79;100.00
62031;BME280;62035;52.094;5.112;2023-01-13T07:08:44;100337.75;;;9.85;100.00
62031;BME280;62035;52.094;5.112;2023-01-13T07:11:11;100334.88;;;9.79;100.00
62031;BME280;62035;52.094;5.112;2023-01-13T07:13:39;100311.81;;;9.53;100.00
62031;BME280;62035;52.094;5.112;2023-01-13T07:16:24;100333.97;;;9.70;100.00
62031;BME280;62035;52.094;5.112;2023-01-13T07:18:53;100336.53;;;9.80;100.00
62031;BME280;62035;52.094;5.112;2023-01-13T07:21:22;100334.50;;;9.74;100.00
62031;BME280;62035;52.094;5.112;2023-01-13T07:23:50;100336.91;;;9.85;100.00
62031;BME280;62035;52.094;5.112;2023-01-13T07:26:17;100337.38;;;9.80;100.00
62031;BME280;62035;52.094;5.112;2023-01-13T07:28:45;100344.66;;;9.78;100.00
62031;BME280;62035;52.094;5.112;2023-01-13T07:31:14;100339.66;;;9.75;100.00
62031;BME280;62035;52.094;5.112;2023-01-13T07:33:43;100342.69;;;9.80;100.00
62031;BME280;62035;52.094;5.112;2023-01-13T07:36:12;100330.59;;;9.86;100.00
62031;BME280;62035;52.094;5.112;2023-01-13T07:38:42;100337.91;;;9.84;100.00
62031;BME280;62035;52.094;5.112;2023-01-13T07:41:11;100346.59;;;9.68;100.00
62031;BME280;62035;52.094;5.112;2023-01-13T07:43:57;100336.31;;;9.73;100.00
62031;BME280;62035;52.094;5.112;2023-01-13T07:46:25;100340.28;;;9.69;100.00
62031;BME280;62035;52.094;5.112;2023-01-13T07:48:52;100339.97;;;9.72;100.00
62031;BME280;62035;52.094;5.112;2023-01-13T07:51:20;100351.19;;;9.84;100.00
62031;BME280;62035;52.094;5.112;2023-01-13T07:53:49;100348.47;;;9.76;100.00
62031;BME280;62035;52.094;5.112;2023-01-13T07:56:18;100357.69;;;9.89;100.00
62031;BME280;62035;52.094;5.112;2023-01-13T07:58:46;100367.91;;;9.76;100.00
62031;BME280;62035;52.094;5.112;2023-01-13T08:01:17;100362.06;;;9.73;100.00
62031;BME280;62035;52.094;5.112;2023-01-13T08:03:45;100349.88;;;9.88;100.00
62031;BME280;62035;52.094;5.112;2023-01-13T08:06:13;100366.09;;;9.77;100.00
62031;BME280;62035;52.094;5.112;2023-01-13T08:08:41;100354.09;;;9.98;100.00
62031;BME280;62035;52.094;5.112;2023-01-13T08:11:10;100366.75;;;10.04;100.00
62031;BME280;62035;52.094;5.112;2023-01-13T08:13:38;100371.22;;;10.04;100.00
62031;BME280;62035;52.094;5.112;2023-01-13T08:16:07;100374.03;;;10.02;100.00
62031;BME280;62035;52.094;5.112;2023-01-13T08:18:37;100364.09;;;10.04;100.00
62031;BME280;62035;52.094;5.112;2023-01-13T08:21:07;100380.50;;;10.00;100.00
62031;BME280;62035;52.094;5.112;2023-01-13T08:23:37;100386.16;;;9.97;100.00
62031;BME280;62035;52.094;5.112;2023-01-13T08:26:06;100388.28;;;9.93;100.00
62031;BME280;62035;52.094;5.112;2023-01-13T08:28:38;100378.59;;;9.84;100.00
62031;BME280;62035;52.094;5.112;2023-01-13T08:31:08;100387.34;;;9.77;100.00
62031;BME280;62035;52.094;5.112;2023-01-13T08:33:37;100397.66;;;9.80;100.00
62031;BME280;62035;52.094;5.112;2023-01-13T08:36:06;100410.50;;;9.66;100.00
62031;BME280;62035;52.094;5.112;2023-01-13T08:38:36;100397.25;;;9.49;100.00
62031;BME280;62035;52.094;5.112;2023-01-13T08:41:08;100412.97;;;9.42;100.00
62031;BME280;62035;52.094;5.112;2023-01-13T08:43:38;100411.38;;;9.31;100.00
62031;BME280;62035;52.094;5.112;2023-01-13T08:46:06;100419.94;;;9.25;100.00
62031;BME280;62035;52.094;5.112;2023-01-13T08:48:33;100422.53;;;9.17;100.00
62031;BME280;62035;52.094;5.112;2023-01-13T08:51:03;100425.53;;;9.22;100.00
62031;BME280;62035;52.094;5.112;2023-01-13T08:53:32;100444.91;;;9.15;100.00
62031;BME280;62035;52.094;5.112;2023-01-13T08:56:00;100438.97;;;9.21;100.00
62031;BME280;62035;52.094;5.112;2023-01-13T08:58:27;100434.44;;;9.13;100.00
62031;BME280;62035;52.094;5.112;2023-01-13T09:00:56;100437.53;;;9.09;100.00
62031;BME280;62035;52.094;5.112;2023-01-13T09:03:30;100432.47;;;9.15;100.00
62031;BME280;62035;52.094;5.112;2023-01-13T09:05:58;100412.34;;;9.30;100.00
62031;BME280;62035;52.094;5.112;2023-01-13T09:08:26;100437.16;;;9.21;100.00
62031;BME280;62035;52.094;5.112;2023-01-13T09:10:53;100463.19;;;9.18;100.00
62031;BME280;62035;52.094;5.112;2023-01-13T09:13:21;100444.97;;;9.05;100.00
62031;BME280;62035;52.094;5.112;2023-01-13T09:15:47;100460.72;;;9.07;100.00
62031;BME280;62035;52.094;5.112;2023-01-13T09:18:18;100461.03;;;9.03;100.00
62031;BME280;62035;52.094;5.112;2023-01-13T09:20:46;100458.47;;;9.12;100.00
62031;BME280;62035;52.094;5.112;2023-01-13T09:23:13;100464.06;;;9.09;100.00
62031;BME280;62035;52.094;5.112;2023-01-13T09:25:41;100477.13;;;9.20;100.00
62031;BME280;62035;52.094;5.112;2023-01-13T09:28:10;100472.81;;;9.19;100.00
62031;BME280;62035;52.094;5.112;2023-01-13T09:30:38;100472.66;;;9.20;100.00
62031;BME280;62035;52.094;5.112;2023-01-13T09:33:05;100471.16;;;9.35;100.00
62031;BME280;62035;52.094;5.112;2023-01-13T09:35:48;100480.66;;;9.38;100.00
62031;BME280;62035;52.094;5.112;2023-01-13T09:38:16;100481.41;;;9.48;100.00
62031;BME280;62035;52.094;5.112;2023-01-13T09:40:46;100483.63;;;9.53;100.00
62031;BME280;62035;52.094;5.112;2023-01-13T09:43:19;100480.13;;;9.52;100.00
62031;BME280;62035;52.094;5.112;2023-01-13T09:46:13;100488.50;;;9.57;100.00
62031;BME280;62035;52.094;5.112;2023-01-13T09:49:00;100504.78;;;9.62;100.00
62031;BME280;62035;52.094;5.112;2023-01-13T09:51:32;100480.38;;;9.59;100.00
62031;BME280;62035;52.094;5.112;2023-01-13T09:54:10;100477.22;;;9.63;100.00
62031;BME280;62035;52.094;5.112;2023-01-13T09:56:45;100495.16;;;9.79;100.00
62031;BME280;62035;52.094;5.112;2023-01-13T09:59:13;100504.94;;;9.79;100.00
62031;BME280;62035;52.094;5.112;2023-01-13T10:01:47;100489.47;;;9.74;100.00
62031;BME280;62035;52.094;5.112;2023-01-13T10:04:24;100500.25;;;9.90;100.00
62031;BME280;62035;52.094;5.112;2023-01-13T10:06:58;100497.97;;;9.78;100.00
62031;BME280;62035;52.094;5.112;2023-01-13T10:09:37;100502.81;;;9.82;100.00
62031;BME280;62035;52.094;5.112;2023-01-13T10:12:18;100517.47;;;9.86;100.00
62031;BME280;62035;52.094;5.112;2023-01-13T10:15:12;100520.81;;;9.88;100.00
62031;BME280;62035;52.094;5.112;2023-01-13T10:17:46;100527.53;;;10.00;100.00
62031;BME280;62035;52.094;5.112;2023-01-13T10:20:27;100535.97;;;10.14;100.00
62031;BME280;62035;52.094;5.112;2023-01-13T10:23:08;100527.78;;;10.07;100.00
62031;BME280;62035;52.094;5.112;2023-01-13T10:25:58;100538.19;;;10.00;100.00
62031;BME280;62035;52.094;5.112;2023-01-13T10:28:34;100535.53;;;10.00;100.00
62031;BME280;62035;52.094;5.112;2023-01-13T10:31:09;100520.94;;;10.04;100.00
62031;BME280;62035;52.094;5.112;2023-01-13T10:33:38;100538.78;;;10.12;100.00
62031;BME280;62035;52.094;5.112;2023-01-13T10:36:12;100541.13;;;10.15;100.00
62031;BME280;62035;52.094;5.112;2023-01-13T10:38:44;100520.84;;;10.14;100.00
62031;BME280;62035;52.094;5.112;2023-01-13T10:41:19;100535.00;;;10.15;100.00
62031;BME280;62035;52.094;5.112;2023-01-13T10:43:59;100540.09;;;10.26;100.00
62031;BME280;62035;52.094;5.112;2023-01-13T10:46:31;100542.47;;;10.29;100.00
62031;BME280;62035;52.094;5.112;2023-01-13T10:49:02;100539.56;;;10.22;100.00
62031;BME280;62035;52.094;5.112;2023-01-13T10:51:49;100552.09;;;10.30;100.00
62031;BME280;62035;52.094;5.112;2023-01-13T10:54:20;100560.25;;;10.28;100.00
62031;BME280;62035;52.094;5.112;2023-01-13T10:57:12;100564.34;;;10.23;100.00
62031;BME280;62035;52.094;5.112;2023-01-13T10:59:46;100550.06;;;10.24;100.00
62031;BME280;62035;52.094;5.112;2023-01-13T11:02:19;100558.09;;;10.14;100.00
62031;BME280;62035;52.094;5.112;2023-01-13T11:05:02;100564.09;;;10.34;100.00
62031;BME280;62035;52.094;5.112;2023-01-13T11:07:38;100564.25;;;10.15;100.00
62031;BME280;62035;52.094;5.112;2023-01-13T11:10:20;100566.47;;;10.37;100.00
62031;BME280;62035;52.094;5.112;2023-01-13T11:13:02;100576.22;;;10.54;100.00
62031;BME280;62035;52.094;5.112;2023-01-13T11:15:39;100566.09;;;10.58;100.00
62031;BME280;62035;52.094;5.112;2023-01-13T11:18:20;100581.84;;;10.51;100.00
62031;BME280;62035;52.094;5.112;2023-01-13T11:20:54;100577.94;;;10.63;100.00
62031;BME280;62035;52.094;5.112;2023-01-13T11:23:30;100579.69;;;10.73;100.00
62031;BME280;62035;52.094;5.112;2023-01-13T11:26:05;100565.56;;;10.80;100.00
62031;BME280;62035;52.094;5.112;2023-01-13T11:28:46;100573.06;;;10.85;100.00
62031;BME280;62035;52.094;5.112;2023-01-13T11:31:26;100573.84;;;10.69;100.00
62031;BME280;62035;52.094;5.112;2023-01-13T11:34:02;100578.69;;;10.74;100.00
62031;BME280;62035;52.094;5.112;2023-01-13T11:36:40;100568.56;;;10.77;100.00
62031;BME280;62035;52.094;5.112;2023-01-13T11:39:18;100599.31;;;10.80;100.00
62031;BME280;62035;52.094;5.112;2023-01-13T11:41:56;100581.75;;;10.61;100.00
62031;BME280;62035;52.094;5.112;2023-01-13T11:44:52;100597.94;;;10.67;100.00
62031;BME280;62035;52.094;5.112;2023-01-13T11:47:30;100599.09;;;10.65;100.00
62031;BME280;62035;52.094;5.112;2023-01-13T11:50:00;100599.97;;;10.74;100.00
62031;BME280;62035;52.094;5.112;2023-01-13T11:52:37;100584.69;;;10.76;100.00
62031;BME280;62035;52.094;5.112;2023-01-13T11:55:29;100609.03;;;10.89;100.00
62031;BME280;62035;52.094;5.112;2023-01-13T11:58:19;100579.91;;;10.79;100.00
62031;BME280;62035;52.094;5.112;2023-01-13T12:01:02;100589.22;;;10.83;100.00
62031;BME280;62035;52.094;5.112;2023-01-13T12:03:42;100575.81;;;10.67;100.00
62031;BME280;62035;52.094;5.112;2023-01-13T12:06:24;100594.13;;;10.96;100.00
62031;BME280;62035;52.094;5.112;2023-01-13T12:09:09;100613.06;;;10.93;100.00
62031;BME280;62035;52.094;5.112;2023-01-13T12:11:58;100614.94;;;11.00;100.00
62031;BME280;62035;52.094;5.112;2023-01-13T12:15:12;100610.78;;;10.98;100.00
62031;BME280;62035;52.094;5.112;2023-01-13T12:18:07;100617.25;;;10.95;100.00
62031;BME280;62035;52.094;5.112;2023-01-13T12:21:05;100616.03;;;10.90;100.00
62031;BME280;62035;52.094;5.112;2023-01-13T12:23:59;100625.84;;;11.15;100.00
62031;BME280;62035;52.094;5.112;2023-01-13T12:26:39;100616.56;;;10.93;100.00
62031;BME280;62035;52.094;5.112;2023-01-13T12:29:14;100636.25;;;11.00;100.00
62031;BME280;62035;52.094;5.112;2023-01-13T12:31:46;100640.53;;;10.93;100.00
62031;BME280;62035;52.094;5.112;2023-01-13T12:34:21;100635.97;;;10.86;100.00
62031;BME280;62035;52.094;5.112;2023-01-13T12:37:04;100636.88;;;10.94;100.00
62031;BME280;62035;52.094;5.112;2023-01-13T12:39:53;100644.50;;;11.15;100.00
62031;BME280;62035;52.094;5.112;2023-01-13T12:42:33;100642.94;;;11.05;100.00
62031;BME280;62035;52.094;5.112;2023-01-13T12:45:27;100651.75;;;11.05;100.00
62031;BME280;62035;52.094;5.112;2023-01-13T12:47:57;100644.41;;;10.99;100.00
62031;BME280;62035;52.094;5.112;2023-01-13T12:50:37;100667.63;;;10.89;100.00
62031;BME280;62035;52.094;5.112;2023-01-13T12:53:34;100660.06;;;11.02;100.00
62031;BME280;62035;52.094;5.112;2023-01-13T12:56:39;100654.81;;;10.92;100.00
62031;BME280;62035;52.094;5.112;2023-01-13T12:59:30;100675.72;;;11.05;100.00
62031;BME280;62035;52.094;5.112;2023-01-13T13:02:27;100668.31;;;11.17;100.00
62031;BME280;62035;52.094;5.112;2023-01-13T13:08:27;100686.16;;;10.98;100.00
62031;BME280;62035;52.094;5.112;2023-01-13T13:11:35;100682.72;;;11.06;100.00
62031;BME280;62035;52.094;5.112;2023-01-13T13:15:19;100706.94;;;10.95;100.00
62031;BME280;62035;52.094;5.112;2023-01-13T13:18:03;100708.66;;;11.04;100.00
62031;BME280;62035;52.094;5.112;2023-01-13T13:21:06;100709.06;;;10.91;100.00
62031;BME280;62035;52.094;5.112;2023-01-13T13:26:34;100719.63;;;11.01;100.00
62031;BME280;62035;52.094;5.112;2023-01-13T13:29:28;100731.06;;;10.93;100.00
62031;BME280;62035;52.094;5.112;2023-01-13T13:35:39;100737.34;;;11.10;100.00